createdAt,value
2019-02-03T00:00:02.318Z,3.66
2019-02-03T00:01:02.290Z,3.63
2019-02-03T00:02:02.266Z,3.66
2019-02-03T00:03:02.248Z,3.67
2019-02-03T00:04:02.230Z,3.61
2019-02-03T00:05:02.186Z,3.53
2019-02-03T00:06:02.158Z,3.52
2019-02-03T00:07:03.661Z,3.61
2019-02-03T00:08:02.115Z,3.55
2019-02-03T00:09:02.078Z,3.55
2019-02-03T00:10:02.058Z,3.52
2019-02-03T00:11:02.029Z,3.41
2019-02-03T00:12:02.129Z,3.41
2019-02-03T00:13:01.980Z,3.40
2019-02-03T00:14:01.945Z,3.41
2019-02-03T00:15:01.919Z,3.37
2019-02-03T00:16:01.893Z,3.40
2019-02-03T00:17:01.866Z,3.37
2019-02-03T00:18:01.843Z,3.49
2019-02-03T00:19:01.811Z,3.50
2019-02-03T00:20:01.788Z,3.50
2019-02-03T00:21:01.767Z,3.50
2019-02-03T00:22:01.742Z,3.55
2019-02-03T00:23:01.707Z,3.58
2019-02-03T00:24:01.685Z,3.55
2019-02-03T00:25:01.659Z,3.50
2019-02-03T00:26:01.628Z,3.56
2019-02-03T00:27:01.605Z,3.52
2019-02-03T00:28:01.580Z,3.55
2019-02-03T00:29:01.549Z,3.55
2019-02-03T00:30:01.520Z,3.64
2019-02-03T00:31:01.496Z,3.56
2019-02-03T00:32:01.470Z,3.58
2019-02-03T00:33:01.452Z,3.55
2019-02-03T00:34:01.415Z,3.48
2019-02-03T00:35:01.388Z,3.53
2019-02-03T00:36:01.361Z,3.63
2019-02-03T00:37:01.350Z,3.70
2019-02-03T00:38:01.368Z,3.63
2019-02-03T00:39:01.281Z,3.56
2019-02-03T00:40:01.291Z,3.56
2019-02-03T00:41:01.268Z,3.52
2019-02-03T00:42:01.205Z,3.61
2019-02-03T00:43:01.175Z,3.58
2019-02-03T00:44:01.155Z,3.56
2019-02-03T00:45:01.126Z,3.56
2019-02-03T00:46:01.103Z,3.55
2019-02-03T00:47:01.068Z,3.52
2019-02-03T00:48:01.046Z,3.56
2019-02-03T00:49:01.014Z,3.45
2019-02-03T00:50:00.987Z,3.53
2019-02-03T00:51:00.960Z,3.50
2019-02-03T00:52:00.936Z,3.56
2019-02-03T00:53:00.907Z,3.56
2019-02-03T00:54:00.881Z,3.56
2019-02-03T00:55:00.853Z,3.56
2019-02-03T00:56:00.828Z,3.63
2019-02-03T00:57:00.800Z,3.58
2019-02-03T00:58:00.777Z,3.45
2019-02-03T00:59:00.748Z,3.50
2019-02-03T01:00:00.850Z,3.46
2019-02-03T01:01:00.692Z,3.37
2019-02-03T01:02:00.667Z,3.24
2019-02-03T01:03:00.641Z,3.34
2019-02-03T01:04:00.613Z,3.40
2019-02-03T01:05:00.587Z,3.34
2019-02-03T01:06:00.559Z,3.34
2019-02-03T01:07:00.656Z,3.29
2019-02-03T01:08:00.507Z,3.34
2019-02-03T01:09:00.479Z,3.26
2019-02-03T01:10:00.463Z,3.21
2019-02-03T01:11:00.429Z,3.19
2019-02-03T01:12:00.400Z,3.11
2019-02-03T01:13:00.375Z,3.15
2019-02-03T01:14:00.368Z,3.11
2019-02-03T01:15:00.345Z,3.15
2019-02-03T01:16:00.295Z,3.13
2019-02-03T01:17:00.269Z,3.18
2019-02-03T01:18:00.244Z,3.29
2019-02-03T01:19:00.216Z,3.27
2019-02-03T01:20:00.309Z,3.33
2019-02-03T01:21:00.163Z,3.40
2019-02-03T01:22:00.134Z,3.36
2019-02-03T01:23:00.108Z,3.26
2019-02-03T01:24:00.080Z,3.34
2019-02-03T01:25:00.094Z,3.49
2019-02-03T01:26:00.037Z,3.29
2019-02-03T01:27:00.002Z,3.40
2019-02-03T01:27:59.974Z,3.45
2019-02-03T01:28:59.948Z,3.40
2019-02-03T01:30:00.009Z,3.41
2019-02-03T01:30:59.900Z,3.37
2019-02-03T01:31:59.877Z,3.34
2019-02-03T01:32:59.849Z,3.30
2019-02-03T01:33:59.816Z,3.34
2019-02-03T01:34:59.788Z,3.29
2019-02-03T01:35:59.760Z,3.37
2019-02-03T01:36:59.731Z,3.36
2019-02-03T01:37:59.705Z,3.34
2019-02-03T01:38:59.689Z,3.29
2019-02-03T01:39:59.654Z,3.16
2019-02-03T01:40:59.635Z,3.26
2019-02-03T01:41:59.599Z,3.16
2019-02-03T01:42:59.574Z,3.08
2019-02-03T01:43:59.548Z,3.05
2019-02-03T01:44:59.520Z,3.11
2019-02-03T01:45:59.550Z,2.98
2019-02-03T01:46:59.467Z,2.95
2019-02-03T01:47:59.442Z,2.95
2019-02-03T01:48:59.422Z,2.94
2019-02-03T01:49:59.395Z,3.00
2019-02-03T01:50:59.361Z,3.01
2019-02-03T01:51:59.338Z,3.08
2019-02-03T01:52:59.315Z,3.05
2019-02-03T01:53:59.281Z,3.11
2019-02-03T01:54:59.257Z,3.03
2019-02-03T01:55:59.229Z,3.05
2019-02-03T01:56:59.199Z,3.03
2019-02-03T01:57:59.182Z,3.09
2019-02-03T01:58:59.149Z,3.19
2019-02-03T01:59:59.122Z,3.15
2019-02-03T02:00:59.093Z,3.16
2019-02-03T02:01:59.067Z,3.22
2019-02-03T02:02:59.042Z,3.16
2019-02-03T02:03:59.108Z,3.06
2019-02-03T02:04:58.989Z,3.06
2019-02-03T02:05:58.970Z,2.97
2019-02-03T02:06:58.935Z,3.03
2019-02-03T02:07:58.907Z,3.06
2019-02-03T02:08:58.881Z,3.11
2019-02-03T02:09:59.007Z,2.98
2019-02-03T02:10:58.829Z,2.97
2019-02-03T02:11:58.802Z,2.94
2019-02-03T02:12:58.784Z,2.82
2019-02-03T02:13:58.749Z,2.85
2019-02-03T02:14:58.721Z,2.87
2019-02-03T02:15:58.703Z,2.80
2019-02-03T02:16:58.672Z,2.73
2019-02-03T02:17:58.639Z,2.73
2019-02-03T02:18:58.615Z,2.77
2019-02-03T02:19:58.596Z,2.82
2019-02-03T02:20:58.560Z,2.82
2019-02-03T02:21:58.533Z,2.85
2019-02-03T02:22:58.510Z,2.87
2019-02-03T02:23:58.480Z,2.88
2019-02-03T02:24:58.461Z,2.94
2019-02-03T02:25:58.425Z,3.06
2019-02-03T02:26:58.400Z,3.06
2019-02-03T02:27:58.372Z,3.09
2019-02-03T02:28:58.352Z,2.95
2019-02-03T02:29:58.316Z,2.87
2019-02-03T02:30:58.291Z,2.73
2019-02-03T02:31:58.264Z,2.73
2019-02-03T02:32:58.268Z,2.80
2019-02-03T02:33:58.210Z,2.85
2019-02-03T02:34:58.185Z,2.85
2019-02-03T02:35:58.165Z,2.88
2019-02-03T02:36:58.128Z,2.79
2019-02-03T02:38:06.204Z,2.87
2019-02-03T02:38:58.079Z,2.83
2019-02-03T02:39:58.055Z,2.83
2019-02-03T02:40:58.021Z,2.73
2019-02-03T02:41:57.994Z,2.72
2019-02-03T02:42:57.966Z,2.68
2019-02-03T02:43:57.941Z,2.72
2019-02-03T02:44:57.913Z,2.61
2019-02-03T02:45:57.886Z,2.61
2019-02-03T02:46:57.857Z,2.54
2019-02-03T02:47:57.831Z,2.40
2019-02-03T02:48:57.803Z,2.54
2019-02-03T02:49:57.777Z,2.47
2019-02-03T02:50:57.761Z,2.51
2019-02-03T02:51:57.723Z,2.36
2019-02-03T02:52:57.702Z,2.37
2019-02-03T02:53:59.024Z,2.36
2019-02-03T02:54:57.640Z,2.28
2019-02-03T02:55:57.621Z,2.28
2019-02-03T02:56:57.585Z,2.33
2019-02-03T02:57:57.557Z,2.25
2019-02-03T02:58:57.530Z,2.22
2019-02-03T02:59:57.503Z,2.25
2019-02-03T03:00:57.475Z,2.22
2019-02-03T03:01:57.451Z,2.23
2019-02-03T03:02:57.421Z,2.22
2019-02-03T03:03:57.394Z,2.12
2019-02-03T03:04:57.457Z,2.19
2019-02-03T03:05:57.336Z,2.19
2019-02-03T03:06:57.309Z,2.19
2019-02-03T03:07:57.282Z,2.19
2019-02-03T03:08:57.253Z,2.15
2019-02-03T03:09:57.226Z,2.12
2019-02-03T03:10:57.198Z,2.03
2019-02-03T03:11:57.173Z,2.15
2019-02-03T03:12:57.146Z,2.05
2019-02-03T03:13:57.117Z,2.04
2019-02-03T03:14:57.109Z,2.00
2019-02-03T03:15:57.061Z,1.97
2019-02-03T03:16:57.037Z,2.01
2019-02-03T03:17:57.009Z,1.98
2019-02-03T03:18:56.978Z,1.98
2019-02-03T03:19:56.952Z,2.03
2019-02-03T03:20:56.924Z,2.00
2019-02-03T03:21:56.895Z,2.00
2019-02-03T03:22:56.876Z,1.97
2019-02-03T03:23:56.845Z,1.97
2019-02-03T03:24:56.821Z,1.97
2019-02-03T03:25:56.791Z,1.97
2019-02-03T03:26:56.778Z,1.85
2019-02-03T03:27:56.730Z,1.76
2019-02-03T03:28:56.705Z,1.82
2019-02-03T03:29:56.682Z,1.86
2019-02-03T03:30:56.662Z,1.82
2019-02-03T03:31:56.621Z,1.84
2019-02-03T03:32:56.596Z,1.92
2019-02-03T03:33:56.573Z,1.81
2019-02-03T03:34:56.536Z,1.76
2019-02-03T03:35:56.518Z,1.85
2019-02-03T03:36:56.480Z,1.88
2019-02-03T03:37:56.455Z,1.84
2019-02-03T03:38:56.426Z,1.75
2019-02-03T03:39:56.396Z,1.89
2019-02-03T03:40:56.375Z,1.70
2019-02-03T03:41:56.345Z,1.78
2019-02-03T03:42:56.321Z,1.82
2019-02-03T03:43:56.289Z,1.71
2019-02-03T03:44:56.259Z,1.79
2019-02-03T03:45:56.232Z,1.74
2019-02-03T03:46:56.208Z,1.82
2019-02-03T03:47:56.175Z,1.84
2019-02-03T03:48:56.149Z,1.75
2019-02-03T03:49:56.118Z,1.79
2019-02-03T03:50:56.101Z,1.75
2019-02-03T03:51:56.178Z,1.81
2019-02-03T03:52:56.036Z,1.74
2019-02-03T03:53:56.010Z,1.79
2019-02-03T03:54:55.982Z,1.85
2019-02-03T03:55:55.955Z,1.74
2019-02-03T03:56:55.926Z,1.79
2019-02-03T03:57:55.906Z,1.76
2019-02-03T03:58:55.871Z,1.71
2019-02-03T03:59:55.841Z,1.71
2019-02-03T04:00:55.816Z,1.81
2019-02-03T04:01:55.791Z,1.67
2019-02-03T04:02:55.766Z,1.75
2019-02-03T04:03:55.730Z,1.68
2019-02-03T04:04:55.703Z,1.67
2019-02-03T04:05:55.683Z,1.70
2019-02-03T04:06:55.647Z,1.78
2019-02-03T04:07:55.669Z,1.70
2019-02-03T04:08:55.590Z,1.79
2019-02-03T04:09:55.566Z,1.66
2019-02-03T04:10:55.561Z,1.70
2019-02-03T04:11:55.511Z,1.74
2019-02-03T04:12:55.480Z,1.70
2019-02-03T04:13:55.452Z,1.79
2019-02-03T04:14:55.443Z,1.76
2019-02-03T04:15:55.402Z,1.86
2019-02-03T04:16:55.372Z,1.82
2019-02-03T04:17:55.343Z,1.79
2019-02-03T04:18:55.312Z,1.82
2019-02-03T04:19:55.287Z,1.89
2019-02-03T04:20:55.272Z,1.70
2019-02-03T04:21:55.261Z,1.76
2019-02-03T04:22:55.203Z,1.82
2019-02-03T04:23:55.176Z,1.85
2019-02-03T04:24:55.145Z,1.75
2019-02-03T04:25:55.121Z,1.81
2019-02-03T04:26:55.089Z,1.76
2019-02-03T04:27:55.063Z,1.70
2019-02-03T04:28:55.058Z,1.71
2019-02-03T04:29:55.009Z,1.75
2019-02-03T04:30:54.985Z,1.74
2019-02-03T04:31:54.951Z,1.70
2019-02-03T04:32:54.921Z,1.71
2019-02-03T04:33:54.894Z,1.71
2019-02-03T04:34:54.875Z,1.64
2019-02-03T04:35:54.838Z,1.64
2019-02-03T04:36:54.810Z,1.71
2019-02-03T04:37:54.788Z,1.68
2019-02-03T04:38:58.324Z,1.74
2019-02-03T04:39:54.753Z,1.67
2019-02-03T04:40:54.699Z,1.78
2019-02-03T04:41:54.744Z,1.85
2019-02-03T04:42:54.642Z,1.75
2019-02-03T04:43:54.624Z,1.81
2019-02-03T04:44:54.587Z,1.78
2019-02-03T04:45:54.558Z,1.78
2019-02-03T04:46:54.536Z,1.84
2019-02-03T04:47:54.503Z,1.81
2019-02-03T04:48:54.481Z,1.76
2019-02-03T04:49:54.448Z,1.75
2019-02-03T04:50:54.419Z,1.82
2019-02-03T04:51:54.394Z,1.75
2019-02-03T04:52:54.365Z,1.75
2019-02-03T04:53:54.335Z,1.86
2019-02-03T04:54:54.309Z,1.79
2019-02-03T04:55:54.285Z,1.75
2019-02-03T04:56:54.353Z,1.79
2019-02-03T04:57:54.233Z,1.82
2019-02-03T04:58:54.198Z,1.70
2019-02-03T04:59:54.186Z,1.85
2019-02-03T05:00:54.141Z,1.78
2019-02-03T05:01:54.114Z,1.89
2019-02-03T05:02:54.085Z,1.76
2019-02-03T05:03:54.060Z,1.81
2019-02-03T05:04:54.030Z,1.82
2019-02-03T05:05:54.017Z,1.92
2019-02-03T05:06:53.983Z,1.93
2019-02-03T05:07:53.961Z,1.93
2019-02-03T05:08:53.917Z,1.88
2019-02-03T05:09:53.889Z,1.93
2019-02-03T05:10:53.864Z,1.86
2019-02-03T05:11:53.834Z,1.89
2019-02-03T05:12:53.807Z,1.92
2019-02-03T05:13:53.783Z,1.93
2019-02-03T05:14:53.856Z,1.93
2019-02-03T05:15:53.724Z,1.92
2019-02-03T05:16:53.693Z,1.93
2019-02-03T05:17:53.668Z,1.98
2019-02-03T05:18:53.640Z,2.04
2019-02-03T05:19:53.611Z,2.05
2019-02-03T05:20:53.584Z,2.05
2019-02-03T05:21:53.558Z,2.08
2019-02-03T05:22:53.529Z,2.03
2019-02-03T05:23:53.531Z,2.10
2019-02-03T05:24:53.475Z,2.12
2019-02-03T05:25:54.599Z,2.16
2019-02-03T05:26:53.417Z,2.18
2019-02-03T05:27:53.396Z,2.15
2019-02-03T05:28:53.424Z,2.16
2019-02-03T05:29:53.334Z,2.18
2019-02-03T05:30:53.309Z,2.30
2019-02-03T05:31:53.282Z,2.26
2019-02-03T05:32:53.252Z,2.28
2019-02-03T05:33:53.226Z,2.39
2019-02-03T05:34:53.205Z,2.34
2019-02-03T05:35:53.169Z,2.40
2019-02-03T05:36:53.155Z,2.50
2019-02-03T05:37:53.114Z,2.47
2019-02-03T05:38:55.190Z,2.46
2019-02-03T05:39:53.061Z,2.50
2019-02-03T05:40:53.032Z,2.54
2019-02-03T05:41:53.005Z,2.57
2019-02-03T05:42:52.990Z,2.41
2019-02-03T05:43:52.951Z,2.52
2019-02-03T05:44:52.923Z,2.50
2019-02-03T05:45:52.894Z,2.50
2019-02-03T05:46:52.869Z,2.50
2019-02-03T05:47:52.839Z,2.55
2019-02-03T05:48:52.814Z,2.54
2019-02-03T05:49:52.793Z,2.47
2019-02-03T05:50:52.758Z,2.50
2019-02-03T05:51:52.731Z,2.54
2019-02-03T05:52:52.714Z,2.40
2019-02-03T05:53:52.676Z,2.52
2019-02-03T05:54:52.656Z,2.51
2019-02-03T05:55:52.621Z,2.52
2019-02-03T05:56:52.595Z,2.55
2019-02-03T05:57:52.567Z,2.58
2019-02-03T05:58:52.547Z,2.57
2019-02-03T05:59:52.512Z,2.61
2019-02-03T06:00:52.486Z,2.58
2019-02-03T06:01:52.456Z,2.61
2019-02-03T06:02:52.466Z,2.58
2019-02-03T06:03:52.410Z,2.58
2019-02-03T06:04:52.374Z,2.55
2019-02-03T06:05:52.354Z,2.55
2019-02-03T06:06:52.320Z,2.58
2019-02-03T06:07:52.294Z,2.51
2019-02-03T06:08:52.267Z,2.58
2019-02-03T06:09:52.240Z,2.51
2019-02-03T06:10:52.212Z,2.50
2019-02-03T06:11:52.186Z,2.52
2019-02-03T06:12:52.158Z,2.47
2019-02-03T06:13:52.129Z,2.52
2019-02-03T06:14:52.147Z,2.46
2019-02-03T06:15:52.085Z,2.43
2019-02-03T06:16:52.050Z,2.50
2019-02-03T06:17:52.022Z,2.46
2019-02-03T06:18:51.994Z,2.39
2019-02-03T06:19:51.969Z,2.44
2019-02-03T06:20:51.939Z,2.40
2019-02-03T06:21:51.911Z,2.51
2019-02-03T06:22:51.889Z,2.43
2019-02-03T06:23:51.858Z,2.54
2019-02-03T06:24:52.009Z,2.41
2019-02-03T06:25:51.803Z,2.47
2019-02-03T06:26:51.808Z,2.37
2019-02-03T06:27:51.753Z,2.44
2019-02-03T06:28:51.719Z,2.39
2019-02-03T06:29:51.693Z,2.43
2019-02-03T06:30:51.669Z,2.52
2019-02-03T06:31:51.638Z,2.41
2019-02-03T06:32:51.613Z,2.55
2019-02-03T06:33:51.585Z,2.51
2019-02-03T06:34:51.557Z,2.54
2019-02-03T06:35:51.531Z,2.58
2019-02-03T06:36:52.004Z,2.55
2019-02-03T06:37:51.474Z,2.64
2019-02-03T06:38:51.444Z,2.58
2019-02-03T06:39:51.419Z,2.65
2019-02-03T06:40:51.393Z,2.69
2019-02-03T06:41:51.379Z,2.65
2019-02-03T06:42:51.362Z,2.77
2019-02-03T06:43:51.309Z,2.83
2019-02-03T06:44:51.282Z,2.76
2019-02-03T06:45:51.256Z,2.87
2019-02-03T06:46:51.229Z,2.85
2019-02-03T06:47:51.202Z,2.93
2019-02-03T06:48:51.177Z,2.88
2019-02-03T06:49:51.148Z,2.87
2019-02-03T06:50:51.131Z,2.93
2019-02-03T06:51:51.092Z,2.95
2019-02-03T06:52:51.065Z,3.01
2019-02-03T06:53:51.036Z,3.00
2019-02-03T06:54:51.019Z,3.09
2019-02-03T06:55:50.983Z,3.09
2019-02-03T06:56:50.954Z,3.06
2019-02-03T06:57:50.928Z,3.09
2019-02-03T06:58:50.921Z,3.06
2019-02-03T06:59:51.433Z,2.83
2019-02-03T07:00:50.846Z,3.00
2019-02-03T07:01:50.819Z,2.98
2019-02-03T07:02:50.793Z,3.01
2019-02-03T07:03:50.771Z,3.08
2019-02-03T07:04:50.739Z,3.06
2019-02-03T07:05:50.711Z,3.12
2019-02-03T07:06:50.684Z,3.09
2019-02-03T07:07:50.662Z,3.09
2019-02-03T07:08:50.628Z,3.08
2019-02-03T07:09:59.970Z,3.06
2019-02-03T07:10:50.578Z,3.09
2019-02-03T07:11:50.620Z,3.06
2019-02-03T07:12:50.528Z,2.97
2019-02-03T07:13:50.497Z,2.95
2019-02-03T07:14:50.466Z,3.03
2019-02-03T07:15:50.437Z,3.05
2019-02-03T07:16:50.417Z,3.08
2019-02-03T07:17:50.385Z,3.06
2019-02-03T07:18:50.357Z,3.00
2019-02-03T07:19:50.326Z,3.01
2019-02-03T07:20:50.299Z,3.03
2019-02-03T07:21:50.272Z,3.05
2019-02-03T07:22:50.303Z,3.09
2019-02-03T07:23:50.227Z,3.09
2019-02-03T07:24:50.245Z,3.03
2019-02-03T07:25:50.161Z,3.01
2019-02-03T07:26:50.141Z,3.03
2019-02-03T07:27:50.107Z,3.06
2019-02-03T07:28:50.084Z,3.06
2019-02-03T07:29:50.051Z,3.00
2019-02-03T07:30:50.025Z,2.98
2019-02-03T07:31:50.006Z,2.97
2019-02-03T07:32:49.969Z,2.97
2019-02-03T07:33:49.944Z,3.05
2019-02-03T07:34:49.915Z,2.97
2019-02-03T07:35:49.895Z,3.05
2019-02-03T07:36:49.864Z,3.06
2019-02-03T07:37:49.834Z,3.08
2019-02-03T07:38:49.803Z,3.05
2019-02-03T07:39:49.777Z,3.06
2019-02-03T07:40:49.766Z,3.06
2019-02-03T07:41:49.721Z,3.15
2019-02-03T07:42:49.699Z,3.21
2019-02-03T07:43:49.681Z,3.21
2019-02-03T07:44:49.642Z,3.05
2019-02-03T07:45:49.612Z,3.13
2019-02-03T07:46:49.592Z,3.16
2019-02-03T07:47:49.557Z,3.24
2019-02-03T07:48:49.528Z,3.11
2019-02-03T07:49:49.502Z,3.00
2019-02-03T07:50:49.474Z,3.09
2019-02-03T07:51:49.451Z,3.13
2019-02-03T07:52:49.425Z,3.08
2019-02-03T07:53:49.399Z,3.03
2019-02-03T07:54:49.363Z,3.01
2019-02-03T07:55:49.335Z,3.03
2019-02-03T07:56:49.311Z,3.08
2019-02-03T07:57:49.281Z,3.06
2019-02-03T07:58:49.254Z,3.06
2019-02-03T07:59:49.224Z,3.18
2019-02-03T08:00:49.219Z,3.03
2019-02-03T08:01:49.170Z,3.15
2019-02-03T08:02:49.140Z,3.13
2019-02-03T08:03:49.124Z,3.11
2019-02-03T08:04:49.096Z,3.24
2019-02-03T08:05:49.064Z,3.09
2019-02-03T08:06:49.030Z,3.09
2019-02-03T08:07:49.006Z,3.09
2019-02-03T08:08:48.983Z,3.05
2019-02-03T08:09:48.964Z,3.09
2019-02-03T08:10:48.970Z,3.01
2019-02-03T08:11:48.898Z,3.11
2019-02-03T08:12:48.863Z,3.08
2019-02-03T08:13:48.838Z,3.11
2019-02-03T08:14:48.810Z,3.06
2019-02-03T08:15:48.783Z,3.08
2019-02-03T08:16:48.753Z,3.08
2019-02-03T08:17:48.743Z,2.97
2019-02-03T08:18:48.699Z,3.08
2019-02-03T08:19:48.679Z,3.08
2019-02-03T08:20:48.650Z,3.00
2019-02-03T08:21:48.614Z,3.09
2019-02-03T08:22:48.595Z,3.09
2019-02-03T08:23:51.202Z,3.06
2019-02-03T08:24:48.536Z,3.08
2019-02-03T08:25:48.635Z,3.13
2019-02-03T08:26:48.483Z,3.21
2019-02-03T08:27:48.456Z,3.24
2019-02-03T08:28:48.420Z,3.22
2019-02-03T08:29:48.412Z,3.18
2019-02-03T08:30:48.376Z,3.18
2019-02-03T08:31:48.390Z,3.15
2019-02-03T08:32:48.322Z,3.16
2019-02-03T08:33:48.285Z,3.22
2019-02-03T08:34:48.258Z,3.27
2019-02-03T08:35:48.231Z,3.29
2019-02-03T08:36:48.203Z,3.33
2019-02-03T08:37:48.176Z,3.33
2019-02-03T08:38:48.151Z,3.31
2019-02-03T08:39:48.129Z,3.26
2019-02-03T08:40:48.091Z,3.30
2019-02-03T08:41:48.065Z,3.29
2019-02-03T08:42:48.039Z,3.30
2019-02-03T08:43:48.016Z,3.26
2019-02-03T08:44:47.982Z,3.33
2019-02-03T08:45:47.954Z,3.33
2019-02-03T08:46:47.936Z,3.34
2019-02-03T08:47:47.901Z,3.27
2019-02-03T08:48:47.881Z,3.34
2019-02-03T08:49:47.846Z,3.50
2019-02-03T08:50:47.827Z,3.37
2019-02-03T08:51:47.789Z,3.41
2019-02-03T08:52:47.770Z,3.34
2019-02-03T08:53:47.746Z,3.43
2019-02-03T08:54:57.987Z,3.37
2019-02-03T08:55:47.681Z,3.52
2019-02-03T08:56:47.655Z,3.49
2019-02-03T08:57:47.631Z,3.37
2019-02-03T08:58:47.597Z,3.48
2019-02-03T08:59:47.571Z,3.55
2019-02-03T09:00:47.554Z,3.48
2019-02-03T09:01:47.514Z,3.40
2019-02-03T09:02:47.487Z,3.52
2019-02-03T09:03:47.466Z,3.52
2019-02-03T09:04:47.441Z,3.53
2019-02-03T09:05:47.404Z,3.49
2019-02-03T09:06:47.398Z,3.56
2019-02-03T09:07:47.350Z,3.50
2019-02-03T09:08:47.333Z,3.67
2019-02-03T09:09:47.297Z,3.53
2019-02-03T09:10:48.818Z,3.64
2019-02-03T09:11:47.250Z,3.67
2019-02-03T09:12:47.214Z,3.70
2019-02-03T09:13:47.189Z,3.78
2019-02-03T09:14:47.159Z,3.84
2019-02-03T09:15:47.133Z,3.77
2019-02-03T09:16:47.109Z,3.82
2019-02-03T09:17:47.075Z,3.73
2019-02-03T09:18:47.050Z,3.73
2019-02-03T09:19:47.029Z,3.73
2019-02-03T09:20:48.268Z,3.70
2019-02-03T09:21:46.976Z,3.84
2019-02-03T09:22:46.959Z,3.81
2019-02-03T09:23:46.913Z,3.91
2019-02-03T09:24:46.886Z,3.94
2019-02-03T09:25:46.883Z,3.94
2019-02-03T09:26:46.831Z,3.96
2019-02-03T09:27:46.809Z,3.99
2019-02-03T09:28:46.776Z,4.04
2019-02-03T09:29:46.751Z,4.18
2019-02-03T09:30:46.725Z,4.22
2019-02-03T09:31:46.704Z,4.10
2019-02-03T09:32:46.815Z,4.13
2019-02-03T09:33:46.643Z,4.07
2019-02-03T09:34:46.728Z,4.18
2019-02-03T09:35:46.599Z,4.03
2019-02-03T09:36:46.566Z,4.02
2019-02-03T09:37:46.535Z,4.06
2019-02-03T09:38:46.535Z,4.00
2019-02-03T09:39:46.491Z,4.07
2019-02-03T09:40:46.461Z,4.07
2019-02-03T09:41:46.430Z,4.07
2019-02-03T09:42:47.160Z,4.10
2019-02-03T09:43:46.373Z,4.03
2019-02-03T09:44:46.347Z,4.06
2019-02-03T09:45:46.317Z,4.18
2019-02-03T09:46:46.291Z,4.20
2019-02-03T09:47:46.263Z,4.25
2019-02-03T09:48:46.238Z,4.39
2019-02-03T09:49:46.222Z,4.48
2019-02-03T09:50:46.190Z,4.52
2019-02-03T09:51:46.163Z,5.05
2019-02-03T09:52:46.135Z,5.74
2019-02-03T09:53:46.164Z,6.29
2019-02-03T09:54:46.075Z,6.65
2019-02-03T09:55:46.047Z,7.13
2019-02-03T09:56:46.037Z,7.59
2019-02-03T09:57:46.012Z,7.61
2019-02-03T09:58:45.970Z,7.74
2019-02-03T09:59:45.950Z,7.95
2019-02-03T10:00:45.923Z,7.90
2019-02-03T10:01:45.901Z,7.91
2019-02-03T10:02:45.873Z,8.02
2019-02-03T10:03:45.856Z,7.90
2019-02-03T10:04:45.819Z,7.84
2019-02-03T10:05:45.796Z,7.98
2019-02-03T10:06:45.772Z,8.13
2019-02-03T10:07:45.763Z,8.24
2019-02-03T10:08:45.721Z,8.06
2019-02-03T10:09:45.695Z,8.14
2019-02-03T10:10:45.726Z,8.08
2019-02-03T10:11:45.660Z,8.24
2019-02-03T10:12:45.628Z,8.49
2019-02-03T10:13:45.602Z,8.71
2019-02-03T10:14:45.587Z,8.63
2019-02-03T10:15:45.605Z,8.74
2019-02-03T10:16:47.520Z,8.86
2019-02-03T10:17:45.523Z,8.81
2019-02-03T10:18:45.484Z,9.02
2019-02-03T10:19:45.463Z,9.16
2019-02-03T10:20:45.593Z,9.51
2019-02-03T10:21:45.416Z,9.55
2019-02-03T10:22:45.396Z,9.39
2019-02-03T10:23:45.371Z,9.40
2019-02-03T10:24:45.365Z,9.77
2019-02-03T10:25:45.333Z,9.66
2019-02-03T10:26:45.314Z,9.74
2019-02-03T10:27:45.299Z,9.59
2019-02-03T10:28:46.637Z,9.80
2019-02-03T10:29:45.235Z,9.84
2019-02-03T10:30:45.216Z,10.05
2019-02-03T10:31:45.241Z,10.06
2019-02-03T10:32:45.169Z,10.10
2019-02-03T10:33:45.146Z,10.46
2019-02-03T10:34:45.124Z,10.97
2019-02-03T10:35:45.103Z,11.00
2019-02-03T10:36:45.084Z,10.76
2019-02-03T10:37:45.081Z,10.67
2019-02-03T10:38:45.043Z,10.84
2019-02-03T10:39:45.018Z,10.87
2019-02-03T10:40:44.992Z,11.34
2019-02-03T10:41:44.971Z,11.07
2019-02-03T10:42:44.949Z,10.92
2019-02-03T10:43:44.937Z,10.98
2019-02-03T10:44:44.907Z,10.86
2019-02-03T10:45:44.885Z,10.72
2019-02-03T10:46:44.864Z,10.86
2019-02-03T10:47:44.854Z,10.92
2019-02-03T10:48:44.823Z,11.00
2019-02-03T10:49:46.690Z,10.89
2019-02-03T10:50:44.778Z,10.69
2019-02-03T10:51:44.765Z,10.43
2019-02-03T10:52:44.735Z,9.90
2019-02-03T10:53:44.715Z,9.42
2019-02-03T10:54:44.692Z,9.02
2019-02-03T10:55:44.675Z,8.57
2019-02-03T10:56:44.662Z,8.27
2019-02-03T10:57:44.627Z,8.14
2019-02-03T10:58:44.608Z,7.93
2019-02-03T10:59:44.594Z,7.96
2019-02-03T11:00:44.564Z,7.90
2019-02-03T11:01:44.549Z,7.90
2019-02-03T11:02:44.538Z,7.78
2019-02-03T11:03:44.499Z,7.74
2019-02-03T11:04:44.479Z,7.74
2019-02-03T11:05:44.455Z,7.78
2019-02-03T11:06:44.431Z,7.93
2019-02-03T11:07:44.416Z,8.05
2019-02-03T11:08:44.402Z,8.17
2019-02-03T11:09:44.371Z,8.21
2019-02-03T11:10:44.455Z,8.18
2019-02-03T11:11:44.328Z,8.27
2019-02-03T11:12:44.308Z,8.45
2019-02-03T11:13:44.278Z,8.44
2019-02-03T11:14:44.266Z,8.38
2019-02-03T11:15:44.253Z,8.50
2019-02-03T11:16:44.226Z,8.63
2019-02-03T11:17:44.190Z,8.69
2019-02-03T11:18:44.168Z,9.44
2019-02-03T11:19:44.163Z,10.12
2019-02-03T11:20:44.134Z,11.12
2019-02-03T11:21:44.112Z,11.58
2019-02-03T11:22:44.089Z,11.23
2019-02-03T11:23:44.075Z,10.89
2019-02-03T11:24:44.037Z,10.59
2019-02-03T11:25:44.027Z,10.46
2019-02-03T11:26:43.996Z,10.36
2019-02-03T11:27:43.976Z,10.12
2019-02-03T11:28:43.948Z,9.51
2019-02-03T11:29:43.926Z,9.24
2019-02-03T11:30:43.917Z,8.99
2019-02-03T11:31:43.896Z,8.87
2019-02-03T11:32:43.863Z,8.72
2019-02-03T11:33:43.844Z,8.71
2019-02-03T11:34:43.820Z,8.49
2019-02-03T11:35:43.797Z,8.45
2019-02-03T11:36:43.778Z,8.44
2019-02-03T11:37:43.761Z,8.52
2019-02-03T11:38:43.732Z,8.50
2019-02-03T11:39:43.710Z,8.52
2019-02-03T11:40:43.715Z,8.42
2019-02-03T11:41:49.421Z,8.50
2019-02-03T11:42:43.645Z,8.59
2019-02-03T11:43:43.632Z,8.44
2019-02-03T11:44:43.655Z,8.45
2019-02-03T11:45:43.581Z,8.34
2019-02-03T11:46:43.558Z,8.16
2019-02-03T11:47:43.542Z,8.03
2019-02-03T11:48:43.517Z,7.98
2019-02-03T11:49:43.495Z,7.99
2019-02-03T11:50:43.478Z,8.05
2019-02-03T11:51:43.462Z,8.31
2019-02-03T11:52:43.427Z,8.45
2019-02-03T11:53:43.415Z,8.31
2019-02-03T11:54:43.386Z,8.28
2019-02-03T11:55:43.363Z,8.24
2019-02-03T11:56:43.347Z,8.05
2019-02-03T11:57:43.326Z,7.90
2019-02-03T11:58:43.304Z,7.72
2019-02-03T11:59:43.286Z,7.70
2019-02-03T12:00:43.262Z,7.58
2019-02-03T12:01:43.238Z,7.61
2019-02-03T12:02:43.209Z,7.66
2019-02-03T12:03:43.192Z,7.64
2019-02-03T12:04:43.163Z,7.59
2019-02-03T12:05:43.141Z,7.69
2019-02-03T12:06:43.119Z,7.83
2019-02-03T12:07:43.111Z,7.74
2019-02-03T12:08:43.086Z,7.90
2019-02-03T12:09:43.055Z,7.88
2019-02-03T12:10:43.030Z,7.96
2019-02-03T12:11:43.009Z,7.93
2019-02-03T12:12:42.986Z,8.01
2019-02-03T12:13:42.965Z,8.11
2019-02-03T12:14:42.956Z,8.11
2019-02-03T12:15:42.920Z,8.11
2019-02-03T12:16:42.895Z,8.34
2019-02-03T12:17:42.932Z,8.35
2019-02-03T12:18:42.854Z,8.34
2019-02-03T12:19:42.829Z,8.32
2019-02-03T12:20:42.808Z,8.31
2019-02-03T12:21:42.784Z,8.31
2019-02-03T12:22:42.770Z,8.35
2019-02-03T12:23:42.742Z,8.21
2019-02-03T12:24:42.720Z,8.24
2019-02-03T12:25:42.701Z,8.17
2019-02-03T12:26:42.673Z,8.17
2019-02-03T12:27:42.658Z,8.06
2019-02-03T12:28:42.632Z,8.06
2019-02-03T12:29:42.619Z,7.95
2019-02-03T12:30:42.588Z,7.91
2019-02-03T12:31:42.562Z,7.62
2019-02-03T12:32:42.539Z,7.48
2019-02-03T12:33:42.526Z,7.46
2019-02-03T12:34:42.501Z,7.41
2019-02-03T12:35:42.474Z,7.46
2019-02-03T12:36:42.558Z,7.64
2019-02-03T12:37:42.430Z,7.72
2019-02-03T12:38:42.444Z,7.75
2019-02-03T12:39:42.397Z,7.83
2019-02-03T12:40:42.370Z,7.70
2019-02-03T12:41:42.346Z,7.67
2019-02-03T12:42:42.322Z,7.61
2019-02-03T12:43:42.300Z,7.41
2019-02-03T12:44:42.282Z,7.50
2019-02-03T12:45:42.257Z,7.48
2019-02-03T12:46:42.247Z,7.29
2019-02-03T12:47:42.212Z,7.11
2019-02-03T12:48:42.188Z,7.08
2019-02-03T12:49:42.169Z,7.04
2019-02-03T12:50:42.155Z,7.05
2019-02-03T12:51:42.137Z,7.14
2019-02-03T12:52:42.126Z,7.19
2019-02-03T12:53:42.081Z,7.18
2019-02-03T12:54:42.066Z,7.18
2019-02-03T12:55:44.732Z,7.07
2019-02-03T12:56:42.019Z,7.01
2019-02-03T12:57:41.995Z,6.96
2019-02-03T12:58:41.979Z,6.83
2019-02-03T12:59:41.946Z,6.87
2019-02-03T13:00:41.925Z,7.00
2019-02-03T13:01:41.910Z,7.08
2019-02-03T13:02:41.888Z,7.19
2019-02-03T13:03:41.857Z,7.15
2019-02-03T13:04:41.835Z,7.14
2019-02-03T13:05:41.813Z,7.23
2019-02-03T13:06:41.800Z,7.26
2019-02-03T13:07:41.780Z,7.26
2019-02-03T13:08:41.820Z,7.18
2019-02-03T13:09:41.730Z,7.18
2019-02-03T13:10:41.712Z,7.18
2019-02-03T13:11:41.693Z,7.13
2019-02-03T13:12:41.659Z,7.14
2019-02-03T13:13:41.643Z,7.15
2019-02-03T13:14:41.622Z,7.18
2019-02-03T13:15:41.642Z,7.15
2019-02-03T13:16:41.576Z,7.11